Time;durP1;ratioP1;P1;durP2;ratioP2;P2;SDS_P1;SDS_P2;PMS_P1;PMS_P2;Temp;Humidity;BMP_temperature;BMP_pressure;BME280_temperature;BME280_humidity;BME280_pressure;Samples;Min_cycle;Max_cycle;Signal;HPM_P1;HPM_P2
2024/01/05 00:01:39;;;;;;;12.80;3.97;;;;;;;8.88;86.23;99808.88;5071339;28;20059;-62
2024/01/05 00:04:04;;;;;;;13.95;3.50;;;;;;;8.88;86.49;99814.41;5070324;28;20043;-62
2024/01/05 00:06:30;;;;;;;18.40;3.67;;;;;;;8.87;86.53;99809.13;5081632;28;20040;-62
2024/01/05 00:08:55;;;;;;;14.88;4.90;;;;;;;8.88;86.15;99808.03;5051115;28;20396;-62
2024/01/05 00:11:21;;;;;;;16.40;3.97;;;;;;;8.91;86.55;99804.75;5079188;28;20027;-62
2024/01/05 00:13:47;;;;;;;16.10;4.47;;;;;;;8.87;86.35;99800.84;5065386;28;20456;-61
2024/01/05 00:16:19;;;;;;;16.65;4.28;;;;;;;8.90;86.72;99803.09;5072080;28;20021;-61
2024/01/05 00:18:45;;;;;;;13.95;3.60;;;;;;;8.90;86.62;99795.59;5077003;28;20031;-62
2024/01/05 00:21:21;;;;;;;13.82;3.90;;;;;;;8.92;87.16;99803.63;5085628;28;20474;-62
2024/01/05 00:23:48;;;;;;;11.75;4.30;;;;;;;8.93;86.72;99800.63;5082825;28;20544;-62
2024/01/05 00:26:17;;;;;;;13.77;5.00;;;;;;;8.95;87.19;99792.03;5081149;28;20031;-62
2024/01/05 00:28:43;;;;;;;19.30;6.65;;;;;;;8.96;86.60;99808.38;5069353;28;20020;-62
2024/01/05 00:31:10;;;;;;;14.20;4.32;;;;;;;8.96;87.21;99785.38;5064605;28;20055;-62
2024/01/05 00:33:36;;;;;;;15.05;5.65;;;;;;;9.00;87.20;99792.91;5065258;28;20025;-62
2024/01/05 00:36:02;;;;;;;13.77;4.28;;;;;;;8.99;87.21;99791.22;5075338;28;20044;-62
2024/01/05 00:38:27;;;;;;;12.18;4.13;;;;;;;9.01;86.71;99780.72;5065702;28;20376;-62
2024/01/05 00:40:53;;;;;;;10.13;4.55;;;;;;;9.01;86.79;99780.72;5060223;28;20110;-62
2024/01/05 00:43:18;;;;;;;12.20;4.97;;;;;;;9.01;87.10;99777.97;5061850;28;20183;-62
2024/01/05 00:45:43;;;;;;;14.13;4.10;;;;;;;9.03;87.64;99774.91;5051706;28;20486;-62
2024/01/05 00:48:08;;;;;;;17.80;3.85;;;;;;;9.06;87.43;99777.97;5066457;28;20142;-61
2024/01/05 00:50:34;;;;;;;12.68;3.60;;;;;;;9.08;87.17;99769.41;5063141;28;20047;-62
2024/01/05 00:52:59;;;;;;;15.07;3.90;;;;;;;9.09;86.93;99774.69;5057940;28;20055;-62
2024/01/05 00:55:24;;;;;;;11.55;4.57;;;;;;;9.08;87.12;99769.41;5051547;28;20040;-62
2024/01/05 00:57:49;;;;;;;10.70;3.92;;;;;;;9.04;87.36;99763.59;5052473;28;20040;-62
2024/01/05 01:00:15;;;;;;;15.25;4.13;;;;;;;9.06;87.37;99758.59;5072044;28;20037;-62
2024/01/05 01:02:41;;;;;;;13.77;4.00;;;;;;;9.09;87.57;99751.69;5090374;28;20162;-62
2024/01/05 01:05:07;;;;;;;15.30;4.00;;;;;;;9.08;87.55;99764.72;5050970;28;20044;-62
2024/01/05 01:07:35;;;;;;;11.57;3.72;;;;;;;9.12;87.56;99755.84;5050134;28;20054;-62
2024/01/05 01:10:00;;;;;;;12.02;4.30;;;;;;;9.11;87.57;99749.47;5064077;28;20024;-62
2024/01/05 01:12:27;;;;;;;12.15;3.53;;;;;;;9.10;87.10;99742.28;5055448;28;20033;-62
2024/01/05 01:14:53;;;;;;;12.18;3.58;;;;;;;9.10;87.31;99745.06;5066027;28;20032;-62
2024/01/05 01:17:18;;;;;;;13.85;3.40;;;;;;;9.12;87.38;99745.63;5086366;28;20032;-62
2024/01/05 01:19:43;;;;;;;12.23;3.38;;;;;;;9.14;87.24;99746.19;5079144;28;20545;-62
2024/01/05 01:22:09;;;;;;;9.93;3.30;;;;;;;9.13;87.49;99741.75;5053785;28;20546;-62
2024/01/05 01:24:34;;;;;;;10.80;3.30;;;;;;;9.14;87.09;99739.81;5065029;28;20163;-62
2024/01/05 01:26:59;;;;;;;12.85;4.47;;;;;;;9.14;87.46;99728.75;5083705;28;20032;-62
2024/01/05 01:29:27;;;;;;;11.20;3.05;;;;;;;9.12;87.14;99723.47;5074879;28;20080;-62
2024/01/05 01:31:53;;;;;;;13.05;3.72;;;;;;;9.14;87.38;99726.78;5071676;28;20028;-62
2024/01/05 01:34:18;;;;;;;15.30;3.33;;;;;;;9.13;87.14;99724.31;5084908;28;20032;-62
2024/01/05 01:36:43;;;;;;;10.05;3.22;;;;;;;9.15;87.24;99716.56;5094117;28;20024;-62
2024/01/05 01:39:09;;;;;;;14.32;3.20;;;;;;;9.16;86.98;99719.06;5078041;28;20079;-62
2024/01/05 01:41:34;;;;;;;10.68;2.88;;;;;;;9.16;87.14;99718.25;5052674;28;20510;-62
2024/01/05 01:43:59;;;;;;;10.13;3.00;;;;;;;9.16;86.73;99707.16;5073193;28;20029;-62
2024/01/05 01:46:25;;;;;;;10.90;3.40;;;;;;;9.16;86.65;99702.47;5084297;28;20132;-62
2024/01/05 01:48:51;;;;;;;13.10;2.92;;;;;;;9.17;87.03;99697.75;5058131;28;20029;-62
2024/01/05 01:51:16;;;;;;;10.35;3.17;;;;;;;9.15;86.92;99695.22;5074608;28;20025;-62
2024/01/05 01:53:42;;;;;;;9.50;3.00;;;;;;;9.17;86.70;99692.22;5054655;28;20035;-62
2024/01/05 01:56:11;;;;;;;9.77;2.92;;;;;;;9.17;86.87;99701.34;5071500;28;20123;-62
2024/01/05 01:58:41;;;;;;;11.43;3.28;;;;;;;9.18;86.62;99685.56;5056940;28;20476;-62
2024/01/05 02:01:10;;;;;;;11.40;3.08;;;;;;;9.18;86.30;99689.16;5057304;28;20079;-62
2024/01/05 02:03:36;;;;;;;10.77;3.00;;;;;;;9.16;86.49;99673.94;5052812;28;20033;-62
2024/01/05 02:06:01;;;;;;;9.65;3.17;;;;;;;9.17;86.34;99670.91;5053698;28;20123;-62
2024/01/05 02:08:27;;;;;;;8.98;2.92;;;;;;;9.16;85.87;99665.63;5070804;28;20111;-62
2024/01/05 02:10:53;;;;;;;8.05;2.85;;;;;;;9.13;86.07;99658.69;5079974;28;20028;-62
2024/01/05 02:13:19;;;;;;;7.90;2.70;;;;;;;9.15;85.65;99650.13;5057513;28;20039;-62
2024/01/05 02:15:44;;;;;;;8.48;2.38;;;;;;;9.13;85.86;99644.88;5073258;28;20498;-62
2024/01/05 02:18:11;;;;;;;13.10;3.05;;;;;;;9.09;85.81;99641.81;5065965;28;20422;-61
2024/01/05 02:20:37;;;;;;;11.77;2.85;;;;;;;9.11;85.72;99638.75;5059069;28;20025;-62
2024/01/05 02:23:07;;;;;;;10.02;2.83;;;;;;;9.12;85.77;99634.91;5062168;28;20118;-62
2024/01/05 02:25:35;;;;;;;7.70;2.33;;;;;;;9.12;85.37;99636.81;5083120;28;20475;-62
2024/01/05 02:28:00;;;;;;;11.10;2.60;;;;;;;9.12;84.95;99622.97;5070205;28;20597;-62
2024/01/05 02:30:26;;;;;;;9.13;2.65;;;;;;;9.12;84.81;99636.81;5065061;28;20028;-61
2024/01/05 02:32:51;;;;;;;7.45;2.35;;;;;;;9.10;84.75;99631.56;5060274;28;20025;-62
2024/01/05 02:35:16;;;;;;;8.70;2.50;;;;;;;9.10;84.86;99631.56;5058154;28;20031;-62
2024/01/05 02:37:45;;;;;;;6.38;2.30;;;;;;;9.06;84.21;99624.91;5057680;28;20383;-62
2024/01/05 02:40:11;;;;;;;7.03;2.28;;;;;;;9.07;84.79;99627.38;5077799;28;20081;-62
2024/01/05 02:42:36;;;;;;;5.75;2.20;;;;;;;9.06;84.71;99622.13;5069130;28;20036;-62
2024/01/05 02:45:02;;;;;;;8.55;2.58;;;;;;;9.08;84.93;99614.41;5062601;28;20063;-60
2024/01/05 02:47:27;;;;;;;8.05;2.40;;;;;;;9.07;85.09;99615.50;5078409;28;20152;-61
2024/01/05 02:49:53;;;;;;;7.60;2.45;;;;;;;9.07;84.68;99602.47;5057481;28;20024;-61
2024/01/05 02:52:18;;;;;;;8.57;2.67;;;;;;;9.07;85.02;99598.88;5087891;28;20024;-60
2024/01/05 02:54:44;;;;;;;6.45;2.20;;;;;;;9.06;84.23;99597.22;5080968;28;20039;-61
2024/01/05 02:57:10;;;;;;;6.68;2.22;;;;;;;9.07;84.50;99594.19;5083052;28;20551;-61
2024/01/05 02:59:35;;;;;;;6.43;2.35;;;;;;;9.08;84.44;99595.03;5059981;28;20119;-61
2024/01/05 03:02:01;;;;;;;10.13;2.92;;;;;;;9.09;84.89;99585.63;5088873;28;20111;-61
2024/01/05 03:04:26;;;;;;;9.30;2.40;;;;;;;9.07;84.62;99593.34;5074185;28;20119;-61
2024/01/05 03:06:51;;;;;;;6.15;2.38;;;;;;;9.07;84.48;99588.63;5065883;28;20036;-61
2024/01/05 03:09:19;;;;;;;8.50;2.10;;;;;;;9.08;84.36;99584.78;5059638;28;20076;-61
2024/01/05 03:11:45;;;;;;;8.15;2.60;;;;;;;9.09;84.04;99585.63;5092323;28;20070;-61
2024/01/05 03:14:10;;;;;;;8.57;2.17;;;;;;;9.10;84.28;99576.19;5082505;28;20024;-61
2024/01/05 03:16:35;;;;;;;8.70;2.40;;;;;;;9.09;84.06;99574.53;5092461;28;20096;-61
2024/01/05 03:19:01;;;;;;;4.22;2.10;;;;;;;9.11;84.25;99569.56;5079306;28;20028;-60
2024/01/05 03:21:26;;;;;;;7.22;2.35;;;;;;;9.10;83.92;99560.41;5091725;28;20032;-61
2024/01/05 03:23:51;;;;;;;8.52;2.13;;;;;;;9.08;83.83;99562.66;5083148;28;20084;-61
2024/01/05 03:26:17;;;;;;;7.22;2.20;;;;;;;9.10;83.97;99551.28;5062651;28;20043;-61
2024/01/05 03:28:51;;;;;;;6.88;2.50;;;;;;;9.09;83.79;99555.16;5070707;28;20024;-61
2024/01/05 03:31:17;;;;;;;6.40;2.00;;;;;;;9.07;83.25;99549.88;5092102;28;20106;-61
2024/01/05 03:33:43;;;;;;;7.20;2.25;;;;;;;9.05;83.48;99546.59;5066070;28;20159;-61
2024/01/05 03:36:08;;;;;;;7.47;2.35;;;;;;;9.05;83.43;99538.28;5052031;28;20086;-61
2024/01/05 03:38:36;;;;;;;6.57;2.20;;;;;;;9.02;82.76;99540.75;5055067;28;20017;-61
2024/01/05 03:41:02;;;;;;;5.57;1.83;;;;;;;9.00;83.00;99535.50;5085095;28;20165;-61
2024/01/05 03:43:27;;;;;;;7.43;2.30;;;;;;;8.99;82.82;99531.06;5055402;28;20162;-61
2024/01/05 03:45:53;;;;;;;8.25;2.10;;;;;;;8.99;82.75;99527.47;5065142;28;20420;-61
2024/01/05 03:48:38;;;;;;;6.90;2.20;;;;;;;9.02;83.08;99524.16;5051126;28;20499;-61
2024/01/05 03:51:04;;;;;;;6.28;2.35;;;;;;;8.97;82.60;99519.44;5063305;28;20032;-61
2024/01/05 03:53:30;;;;;;;4.88;2.40;;;;;;;8.96;82.62;99509.50;5071484;28;20411;-61
2024/01/05 03:55:59;;;;;;;5.80;2.03;;;;;;;8.99;82.41;99503.38;5070612;28;20032;-61
2024/01/05 03:58:24;;;;;;;9.15;2.38;;;;;;;8.98;82.45;99507.25;5078759;28;20094;-61
2024/01/05 04:00:50;;;;;;;7.25;1.90;;;;;;;8.94;81.89;99497.84;5065668;28;20085;-61
2024/01/05 04:03:17;;;;;;;5.45;1.90;;;;;;;8.96;81.87;99498.44;5058880;28;20025;-61
2024/01/05 04:05:42;;;;;;;6.90;2.08;;;;;;;8.97;82.23;99493.72;5055371;28;20404;-61
2024/01/05 04:08:07;;;;;;;6.90;1.95;;;;;;;8.95;82.37;99491.22;5074931;28;20025;-61
2024/01/05 04:10:33;;;;;;;9.50;2.53;;;;;;;8.99;82.37;99484.00;5055536;28;20044;-61
2024/01/05 04:12:58;;;;;;;7.00;2.30;;;;;;;8.98;81.51;99473.22;5064432;28;20032;-61
2024/01/05 04:15:23;;;;;;;6.82;2.03;;;;;;;8.96;81.78;99470.75;5058743;28;20063;-61
2024/01/05 04:17:49;;;;;;;7.30;1.95;;;;;;;9.00;81.68;99477.41;5078448;28;20133;-61
2024/01/05 04:20:14;;;;;;;6.38;2.25;;;;;;;8.95;81.37;99469.06;5061732;28;20025;-61
2024/01/05 04:22:39;;;;;;;6.00;2.45;;;;;;;8.93;81.22;99460.22;5063857;28;20438;-61
2024/01/05 04:25:05;;;;;;;6.25;1.88;;;;;;;8.94;81.40;99453.56;5062641;28;20476;-61
2024/01/05 04:27:30;;;;;;;5.63;2.05;;;;;;;8.96;81.13;99458.81;5091305;28;20060;-60
2024/01/05 04:29:55;;;;;;;6.47;2.20;;;;;;;8.95;80.96;99454.41;5066232;28;20039;-60
2024/01/05 04:32:21;;;;;;;6.65;1.90;;;;;;;8.94;80.67;99453.56;5063055;28;20086;-60
2024/01/05 04:34:47;;;;;;;6.60;1.95;;;;;;;8.93;80.89;99438.09;5054595;28;20024;-60
2024/01/05 04:37:13;;;;;;;4.55;1.70;;;;;;;8.94;81.38;99439.75;5080649;28;20734;-61
2024/01/05 04:39:38;;;;;;;11.10;2.38;;;;;;;8.93;80.71;99438.09;5070130;28;20089;-61
2024/01/05 04:42:04;;;;;;;7.32;1.80;;;;;;;8.94;80.76;99428.69;5069105;28;20028;-62
2024/01/05 04:44:29;;;;;;;7.43;2.00;;;;;;;8.92;81.12;99425.38;5069977;28;20033;-61
2024/01/05 04:46:54;;;;;;;6.15;1.90;;;;;;;8.93;80.89;99427.03;5065429;28;20029;-61
2024/01/05 04:49:20;;;;;;;6.32;2.00;;;;;;;8.91;80.59;99417.31;5051275;28;20028;-61
2024/01/05 04:51:45;;;;;;;5.75;2.10;;;;;;;8.91;80.54;99418.16;5073188;28;20028;-61
2024/01/05 04:54:10;;;;;;;5.50;1.88;;;;;;;8.94;80.03;99416.78;5072506;28;20387;-61
2024/01/05 04:56:36;;;;;;;5.93;1.90;;;;;;;8.93;80.36;99415.13;5088640;28;20024;-61
2024/01/05 04:59:04;;;;;;;7.45;2.00;;;;;;;8.93;80.32;99409.59;5073380;28;20024;-60
2024/01/05 05:01:29;;;;;;;7.72;1.70;;;;;;;8.91;79.92;99409.03;5070537;28;20037;-61
2024/01/05 05:03:54;;;;;;;6.38;2.00;;;;;;;8.92;79.84;99397.69;5071945;28;20119;-61
2024/01/05 05:06:20;;;;;;;4.70;1.73;;;;;;;8.92;79.66;99402.38;5061223;28;20029;-61
2024/01/05 05:08:48;;;;;;;6.07;1.90;;;;;;;8.88;78.91;99401.28;5057213;28;20033;-62
2024/01/05 05:11:13;;;;;;;6.20;1.95;;;;;;;8.82;78.78;99395.75;5064003;28;20025;-62
2024/01/05 05:13:38;;;;;;;6.53;1.90;;;;;;;8.79;78.40;99401.00;5055895;28;20041;-61
2024/01/05 05:16:04;;;;;;;10.88;2.28;;;;;;;8.75;78.72;99397.13;5062238;28;20032;-61
2024/01/05 05:18:29;;;;;;;6.13;2.00;;;;;;;8.77;78.36;99395.75;5069665;28;20033;-61
2024/01/05 05:20:54;;;;;;;6.22;1.70;;;;;;;8.75;78.83;99391.59;5055843;28;20243;-61
2024/01/05 05:23:20;;;;;;;5.60;1.90;;;;;;;8.77;78.85;99389.41;5060289;28;20025;-62
2024/01/05 05:25:48;;;;;;;9.25;2.00;;;;;;;8.78;78.14;99391.06;5057923;28;20388;-61
2024/01/05 05:28:13;;;;;;;6.57;2.03;;;;;;;8.81;78.34;99398.81;5073173;28;20031;-61
2024/01/05 05:30:38;;;;;;;6.55;2.03;;;;;;;8.81;78.17;99391.34;5078158;28;20128;-61
2024/01/05 05:33:04;;;;;;;7.18;2.10;;;;;;;8.81;77.74;99387.75;5084160;28;20024;-61
2024/01/05 05:35:29;;;;;;;6.05;1.83;;;;;;;8.77;77.95;99393.00;5074374;28;20117;-61
2024/01/05 05:37:55;;;;;;;7.78;2.08;;;;;;;8.79;78.21;99392.69;5078119;28;20544;-61
2024/01/05 05:40:20;;;;;;;5.57;1.50;;;;;;;8.83;78.46;99393.81;5069553;28;20123;-61
2024/01/05 05:42:46;;;;;;;7.60;1.88;;;;;;;8.82;77.12;99387.44;5073147;28;20412;-61
2024/01/05 05:45:11;;;;;;;6.85;1.92;;;;;;;8.78;76.79;99385.53;5053969;28;20036;-61
2024/01/05 05:47:39;;;;;;;4.32;1.50;;;;;;;8.77;75.17;99389.41;5069911;28;20040;-61
2024/01/05 05:50:06;;;;;;;3.40;1.58;;;;;;;8.75;75.70;99394.38;5075768;28;20781;-62
2024/01/05 05:52:32;;;;;;;5.10;1.42;;;;;;;8.72;73.25;99379.16;5076832;28;20500;-61
2024/01/05 05:54:58;;;;;;;4.93;1.50;;;;;;;8.71;72.71;99385.78;5053874;28;20021;-61
2024/01/05 05:57:23;;;;;;;3.78;1.10;;;;;;;8.70;72.08;99397.16;5056101;28;20082;-61
2024/01/05 05:59:50;;;;;;;3.25;1.33;;;;;;;8.69;70.72;99395.50;5060510;28;20366;-61
2024/01/05 06:02:15;;;;;;;1.38;1.00;;;;;;;8.66;69.56;99390.50;5058003;28;20040;-61
2024/01/05 06:04:41;;;;;;;2.15;0.90;;;;;;;8.62;68.23;99395.75;5078986;28;20436;-61
2024/01/05 06:07:06;;;;;;;1.00;0.90;;;;;;;8.58;68.34;99409.31;5080171;28;20059;-61
2024/01/05 06:09:31;;;;;;;2.25;0.98;;;;;;;8.64;69.61;99410.13;5077673;28;20025;-61
2024/01/05 06:11:57;;;;;;;2.15;0.80;;;;;;;8.63;67.19;99407.66;5078238;28;20032;-61
2024/01/05 06:14:22;;;;;;;0.73;0.73;;;;;;;8.61;67.39;99413.47;5054508;28;20035;-61
2024/01/05 06:16:47;;;;;;;0.73;0.63;;;;;;;8.62;66.55;99417.06;5070752;28;20085;-61
2024/01/05 06:19:12;;;;;;;1.35;0.77;;;;;;;8.62;67.27;99408.75;5086233;28;20036;-61
2024/01/05 06:21:40;;;;;;;3.15;0.88;;;;;;;8.66;67.15;99409.88;5061935;28;20387;-61
2024/01/05 06:24:06;;;;;;;0.88;0.70;;;;;;;8.66;67.08;99405.16;5063265;28;20096;-61
2024/01/05 06:26:31;;;;;;;0.80;0.70;;;;;;;8.63;66.44;99400.16;5067973;28;20025;-61
2024/01/05 06:28:56;;;;;;;0.85;0.60;;;;;;;8.67;66.23;99405.97;5087103;28;20063;-61
2024/01/05 06:31:23;;;;;;;1.23;0.95;;;;;;;8.69;67.56;99398.25;5089026;28;20472;-61
2024/01/05 06:33:48;;;;;;;0.70;0.70;;;;;;;8.69;66.74;99403.78;5084840;28;20082;-61
2024/01/05 06:36:13;;;;;;;0.82;0.77;;;;;;;8.69;66.84;99409.31;5087825;28;20028;-61
2024/01/05 06:38:39;;;;;;;1.48;0.90;;;;;;;8.68;66.56;99407.63;5054113;28;20029;-61
2024/01/05 06:41:04;;;;;;;0.80;0.80;;;;;;;8.72;67.07;99411.50;5049194;28;20096;-61
2024/01/05 06:43:29;;;;;;;0.73;0.73;;;;;;;8.72;66.17;99419.81;5054153;28;20036;-61
2024/01/05 06:45:54;;;;;;;1.05;0.80;;;;;;;8.70;65.72;99408.22;5062674;28;20052;-60
2024/01/05 06:48:20;;;;;;;0.60;0.60;;;;;;;8.70;66.59;99433.94;5061069;28;20440;-62
2024/01/05 06:50:45;;;;;;;1.98;0.70;;;;;;;8.64;65.67;99417.59;5062401;28;20033;-61
2024/01/05 06:53:10;;;;;;;1.13;0.60;;;;;;;8.65;67.09;99411.81;5054513;28;20040;-61
2024/01/05 06:55:42;;;;;;;1.08;0.80;;;;;;;8.61;66.33;99416.22;5069984;28;20043;-61
2024/01/05 06:58:08;;;;;;;1.45;0.80;;;;;;;8.63;66.69;99416.78;5059802;28;20456;-60
2024/01/05 07:00:33;;;;;;;0.70;0.70;;;;;;;8.65;66.79;99410.97;5062074;28;20029;-61
2024/01/05 07:02:58;;;;;;;1.40;0.70;;;;;;;8.65;66.19;99409.03;5056048;28;20036;-61
2024/01/05 07:05:23;;;;;;;0.90;0.70;;;;;;;8.65;66.17;99399.91;5055100;28;20511;-61
2024/01/05 07:07:49;;;;;;;1.77;0.85;;;;;;;8.66;66.97;99407.94;5066881;28;20035;-61
2024/01/05 07:10:14;;;;;;;0.90;0.77;;;;;;;8.57;65.93;99406.81;5069222;28;20025;-61
2024/01/05 07:12:39;;;;;;;1.38;0.73;;;;;;;8.56;66.72;99411.50;5054250;28;20032;-61
2024/01/05 07:15:06;;;;;;;1.52;0.88;;;;;;;8.53;65.39;99416.78;5069354;28;20035;-62
2024/01/05 07:17:31;;;;;;;0.68;0.68;;;;;;;8.54;67.00;99413.72;5057996;28;20068;-61
2024/01/05 07:19:59;;;;;;;1.48;0.80;;;;;;;8.51;66.86;99417.03;5051831;28;20120;-62
2024/01/05 07:22:25;;;;;;;1.52;0.70;;;;;;;8.51;66.98;99419.78;5053535;28;20049;-61
2024/01/05 07:24:50;;;;;;;2.75;0.98;;;;;;;8.53;67.02;99412.06;5071894;28;20714;-62
2024/01/05 07:27:16;;;;;;;0.70;0.70;;;;;;;8.52;66.88;99421.44;5057893;28;20029;-62
2024/01/05 07:29:42;;;;;;;0.93;0.80;;;;;;;8.52;66.81;99415.09;5074154;28;20038;-62
2024/01/05 07:32:07;;;;;;;1.00;0.65;;;;;;;8.49;67.34;99413.72;5076418;28;20337;-62
2024/01/05 07:34:33;;;;;;;0.93;0.80;;;;;;;8.51;67.46;99413.44;5069164;28;20450;-62
2024/01/05 07:36:58;;;;;;;3.03;0.88;;;;;;;8.50;67.09;99412.63;5084320;28;20036;-62
2024/01/05 07:39:24;;;;;;;2.75;0.85;;;;;;;8.52;68.54;99415.91;5091477;28;20044;-62
2024/01/05 07:41:49;;;;;;;1.40;0.80;;;;;;;8.50;68.65;99422.84;5073456;28;20082;-62
2024/01/05 07:44:14;;;;;;;0.80;0.80;;;;;;;8.42;69.12;99426.97;5071035;28;20055;-62
2024/01/05 07:46:43;;;;;;;4.20;0.90;;;;;;;8.37;69.82;99421.44;5082569;28;20035;-61
2024/01/05 07:49:09;;;;;;;1.02;0.70;;;;;;;8.28;71.38;99445.16;5051571;28;20116;-61
2024/01/05 07:51:35;;;;;;;1.83;0.80;;;;;;;8.28;71.77;99439.63;5052063;28;20427;-61
2024/01/05 07:54:06;;;;;;;1.25;0.80;;;;;;;8.30;72.30;99431.91;5076261;28;20031;-61
2024/01/05 07:56:36;;;;;;;1.30;0.90;;;;;;;8.31;73.20;99426.09;5091391;28;20032;-61
2024/01/05 07:59:01;;;;;;;1.10;0.77;;;;;;;8.28;72.93;99436.88;5091181;28;20039;-61
2024/01/05 08:01:27;;;;;;;2.28;0.98;;;;;;;8.28;73.25;99436.88;5089124;28;20024;-61
2024/01/05 08:03:52;;;;;;;1.67;0.80;;;;;;;8.27;73.54;99438.81;5059472;28;20025;-60
2024/01/05 08:06:18;;;;;;;1.27;0.82;;;;;;;8.25;74.02;99440.16;5083855;28;20497;-60
2024/01/05 08:08:45;;;;;;;1.90;0.88;;;;;;;8.15;74.19;99435.44;5089489;28;20115;-61
2024/01/05 08:11:10;;;;;;;1.83;0.70;;;;;;;8.18;74.13;99423.03;5089103;28;20016;-61
2024/01/05 08:13:40;;;;;;;1.02;0.80;;;;;;;8.18;73.53;99426.63;5090159;28;20059;-61
2024/01/05 08:16:06;;;;;;;1.60;0.80;;;;;;;8.19;74.47;99428.28;5088765;28;20478;-61
2024/01/05 08:18:31;;;;;;;1.30;0.90;;;;;;;8.20;74.37;99431.88;5085027;28;20086;-62
2024/01/05 08:20:57;;;;;;;2.08;0.80;;;;;;;8.18;74.17;99431.31;5087387;28;20028;-62
2024/01/05 08:23:22;;;;;;;1.83;0.80;;;;;;;8.10;74.74;99440.97;5078291;28;20028;-63
2024/01/05 08:25:48;;;;;;;1.20;0.80;;;;;;;8.08;74.71;99435.69;5071489;28;20512;-62
2024/01/05 08:28:13;;;;;;;2.85;0.95;;;;;;;8.10;75.08;99439.03;5090008;28;20028;-61
2024/01/05 08:30:39;;;;;;;1.08;0.80;;;;;;;8.16;75.26;99444.56;5084852;28;20055;-62
2024/01/05 08:33:05;;;;;;;1.30;0.80;;;;;;;8.14;75.62;99432.97;5083729;28;20028;-63
2024/01/05 08:35:30;;;;;;;2.47;0.88;;;;;;;8.17;75.51;99446.22;5062891;28;20036;-63
2024/01/05 08:37:58;;;;;;;1.48;1.10;;;;;;;8.18;75.75;99448.72;5082207;28;20037;-63
2024/01/05 08:40:26;;;;;;;1.67;1.00;;;;;;;8.23;75.95;99450.69;5089243;28;20047;-63
2024/01/05 08:42:52;;;;;;;2.53;0.90;;;;;;;8.19;75.78;99449.56;5066764;28;20608;-62
2024/01/05 08:45:19;;;;;;;1.30;0.90;;;;;;;8.20;75.58;99452.03;5081792;28;20078;-63
2024/01/05 08:47:44;;;;;;;1.17;0.90;;;;;;;8.16;76.09;99450.94;5089770;28;20762;-63
2024/01/05 08:50:10;;;;;;;2.30;1.20;;;;;;;8.16;76.00;99466.69;5089372;28;20090;-64
2024/01/05 08:52:35;;;;;;;1.48;0.90;;;;;;;8.13;75.66;99462.50;5073779;28;20033;-63
2024/01/05 08:55:00;;;;;;;1.38;0.80;;;;;;;8.15;75.56;99470.56;5085413;28;20027;-62
2024/01/05 08:57:26;;;;;;;1.00;0.73;;;;;;;8.17;74.84;99462.81;5075562;28;20041;-62
2024/01/05 08:59:52;;;;;;;1.20;0.80;;;;;;;8.12;74.08;99466.38;5089332;28;20060;-62
2024/01/05 09:02:21;;;;;;;0.80;0.80;;;;;;;8.08;74.50;99474.38;5071653;28;20059;-61
2024/01/05 09:04:46;;;;;;;0.85;0.68;;;;;;;8.08;74.93;99468.88;5056650;28;20059;-68
2024/01/05 09:07:12;;;;;;;0.85;0.60;;;;;;;8.04;74.69;99487.09;5090421;28;20020;-62
2024/01/05 09:09:37;;;;;;;1.17;0.70;;;;;;;8.06;73.94;99481.31;5089473;28;20028;-66
2024/01/05 09:12:02;;;;;;;0.70;0.70;;;;;;;8.04;74.58;99472.44;5067585;28;20052;-62
2024/01/05 09:14:28;;;;;;;1.10;1.00;;;;;;;8.01;74.44;99475.75;5065308;28;20040;-66
2024/01/05 09:16:53;;;;;;;2.28;2.08;;;;;;;8.03;74.39;99479.91;5089378;28;20075;-64
2024/01/05 09:19:20;;;;;;;2.30;2.10;;;;;;;8.00;74.78;99479.59;5088870;28;20027;-58
2024/01/05 09:21:45;;;;;;;1.42;1.00;;;;;;;7.91;74.75;99475.72;5089331;28;20103;-59
2024/01/05 09:24:11;;;;;;;2.33;0.80;;;;;;;7.91;75.23;99476.53;5079437;28;20032;-58
2024/01/05 09:26:36;;;;;;;1.27;1.00;;;;;;;7.90;75.28;99474.03;5063426;28;20032;-59
2024/01/05 09:29:01;;;;;;;1.95;1.00;;;;;;;7.93;75.15;99488.13;5068165;28;20071;-61
2024/01/05 09:31:27;;;;;;;1.42;1.10;;;;;;;7.90;75.63;99480.41;5070111;28;20021;-58
2024/01/05 09:33:54;;;;;;;1.02;0.70;;;;;;;7.85;75.25;99483.13;5070358;28;20056;-58
2024/01/05 09:36:19;;;;;;;1.17;0.82;;;;;;;7.86;75.40;99484.81;5089470;28;20077;-61
2024/01/05 09:38:45;;;;;;;1.20;1.10;;;;;;;7.80;75.51;99491.41;5083234;28;20024;-61
2024/01/05 09:41:13;;;;;;;0.98;0.90;;;;;;;7.80;76.01;99494.16;5084366;28;20605;-62
2024/01/05 09:43:43;;;;;;;1.33;1.10;;;;;;;7.73;76.18;99488.03;5079716;28;20028;-63
2024/01/05 09:46:08;;;;;;;1.10;1.00;;;;;;;7.67;76.24;99497.41;5082945;28;20404;-63
2024/01/05 09:48:34;;;;;;;1.40;1.15;;;;;;;7.66;76.57;99498.47;5080606;28;20035;-61
2024/01/05 09:51:03;;;;;;;2.15;1.17;;;;;;;7.65;76.70;99505.13;5072922;28;20040;-62
2024/01/05 09:53:28;;;;;;;1.75;1.10;;;;;;;7.72;76.38;99501.03;5064552;28;20032;-62
2024/01/05 09:55:54;;;;;;;1.50;1.25;;;;;;;7.76;76.53;99493.84;5066630;28;20033;-62
2024/01/05 09:58:19;;;;;;;1.92;1.27;;;;;;;7.81;76.44;99498.56;5063204;28;20031;-62
2024/01/05 10:00:49;;;;;;;1.38;1.20;;;;;;;7.77;76.41;99506.56;5072035;28;20656;-59
2024/01/05 10:03:27;;;;;;;2.10;1.40;;;;;;;7.85;76.61;99502.47;5063514;28;20025;-61
2024/01/05 10:05:59;;;;;;;2.65;1.98;;;;;;;7.88;76.16;99505.53;5069581;28;20119;-62
2024/01/05 10:08:24;;;;;;;2.92;2.60;;;;;;;7.90;76.35;99505.28;5058153;28;20036;-61
2024/01/05 10:10:55;;;;;;;2.55;1.52;;;;;;;7.87;76.53;99498.34;5068314;28;20423;-61
2024/01/05 10:13:20;;;;;;;3.40;1.50;;;;;;;7.89;75.34;99492.53;5064391;28;20033;-61
2024/01/05 10:15:56;;;;;;;2.38;1.50;;;;;;;7.86;76.67;99501.38;5062356;28;20032;-61
2024/01/05 10:18:23;;;;;;;2.00;1.50;;;;;;;7.79;75.98;99512.66;5059168;28;20032;-62
2024/01/05 10:20:49;;;;;;;2.67;1.33;;;;;;;7.85;75.92;99494.19;5071417;28;20055;-61
2024/01/05 10:23:17;;;;;;;1.92;1.33;;;;;;;7.81;76.24;99509.63;5063991;28;20083;-61
2024/01/05 10:25:46;;;;;;;1.52;1.42;;;;;;;7.88;76.06;99493.66;5066459;28;20033;-61
2024/01/05 10:28:23;;;;;;;1.98;1.50;;;;;;;7.88;76.37;99493.66;5069413;28;20031;-61
2024/01/05 10:30:49;;;;;;;1.50;1.40;;;;;;;7.92;76.65;99493.94;5062972;28;20032;-61
2024/01/05 10:33:18;;;;;;;2.60;1.40;;;;;;;7.96;76.45;99490.38;5069406;28;20036;-61
2024/01/05 10:35:43;;;;;;;1.83;1.30;;;;;;;8.01;76.14;99487.63;5071717;28;20415;-61
2024/01/05 10:38:11;;;;;;;2.08;1.42;;;;;;;8.02;75.59;99496.75;5069488;28;20084;-61
2024/01/05 10:40:39;;;;;;;2.60;1.40;;;;;;;7.98;75.49;99485.41;5064528;28;20057;-62
2024/01/05 10:43:09;;;;;;;2.25;1.40;;;;;;;7.93;75.32;99501.94;5049589;28;20494;-61
2024/01/05 10:45:36;;;;;;;2.17;1.60;;;;;;;7.90;75.13;99496.97;5046154;28;20973;-61
2024/01/05 10:48:04;;;;;;;3.30;1.80;;;;;;;7.91;75.80;99490.34;5036641;28;20056;-63
2024/01/05 10:50:32;;;;;;;3.40;1.20;;;;;;;7.90;74.95;99502.50;5044188;28;20770;-62
2024/01/05 10:52:59;;;;;;;2.28;1.10;;;;;;;7.88;75.05;99502.75;5046525;28;20024;-63
2024/01/05 10:55:24;;;;;;;2.10;1.30;;;;;;;7.87;75.02;99506.63;5043590;28;20032;-63
2024/01/05 10:57:50;;;;;;;1.95;1.42;;;;;;;7.86;74.21;99504.97;5036827;28;20038;-62
2024/01/05 11:00:16;;;;;;;1.48;1.38;;;;;;;7.90;75.07;99505.28;5032251;28;20026;-62
2024/01/05 11:02:48;;;;;;;2.10;1.30;;;;;;;7.91;74.33;99512.44;5031970;28;20029;-62
2024/01/05 11:05:32;;;;;;;2.28;1.40;;;;;;;7.91;74.66;99501.41;5031322;28;20044;-62
2024/01/05 11:08:00;;;;;;;1.35;1.20;;;;;;;7.88;74.28;99500.00;5063402;28;20025;-63
2024/01/05 11:10:51;;;;;;;2.03;1.52;;;;;;;7.96;75.03;99503.34;5044419;28;20048;-62
2024/01/05 11:13:41;;;;;;;1.95;1.40;;;;;;;7.97;74.94;99518.81;5043286;28;20414;-63
2024/01/05 11:16:42;;;;;;;1.75;1.27;;;;;;;7.93;74.83;99518.53;5032055;28;20075;-62
2024/01/05 11:19:25;;;;;;;3.47;1.50;;;;;;;7.93;74.54;99509.41;5035633;28;20063;-63
2024/01/05 11:22:03;;;;;;;2.05;1.50;;;;;;;7.91;74.83;99517.97;5052022;28;20111;-62
2024/01/05 11:24:30;;;;;;;1.52;1.42;;;;;;;7.91;74.97;99512.44;5058368;28;20034;-62
2024/01/05 11:26:56;;;;;;;1.83;1.50;;;;;;;7.93;75.05;99514.94;5041377;28;20053;-62
2024/01/05 11:29:47;;;;;;;2.75;1.70;;;;;;;7.96;75.49;99525.47;5046131;28;20021;-64
2024/01/05 11:32:51;;;;;;;1.85;1.50;;;;;;;7.98;76.08;99510.28;5044354;28;20166;-62
2024/01/05 11:35:19;;;;;;;2.92;1.63;;;;;;;7.98;76.08;99506.69;4988259;28;20038;-62
2024/01/05 11:37:46;;;;;;;3.83;1.85;;;;;;;7.96;74.75;99511.66;4983581;28;20056;-62